Time;durP1;ratioP1;P1;durP2;ratioP2;P2;SDS_P1;SDS_P2;PMS_P1;PMS_P2;Temp;Humidity;BMP_temperature;BMP_pressure;BME280_temperature;BME280_humidity;BME280_pressure;Samples;Min_cycle;Max_cycle;Signal;HPM_P1;HPM_P2
2021/01/30 00:00:17;;;;;;;2.00;1.40;;;4.00;85.80;;;;;;5095709;28;20055;-66
2021/01/30 00:02:43;;;;;;;7.03;1.95;;;4.00;85.80;;;;;;5096213;28;20032;-66
2021/01/30 00:05:09;;;;;;;2.95;1.67;;;4.00;85.70;;;;;;5077443;28;20376;-66
2021/01/30 00:07:35;;;;;;;4.20;1.42;;;4.00;85.40;;;;;;5096461;28;20111;-66
2021/01/30 00:10:01;;;;;;;1.73;1.20;;;4.00;85.70;;;;;;5096319;28;20124;-66
2021/01/30 00:12:26;;;;;;;2.15;1.30;;;4.00;85.70;;;;;;5095438;28;20101;-66
2021/01/30 00:14:53;;;;;;;3.67;1.65;;;4.00;85.70;;;;;;5096061;28;20036;-66
2021/01/30 00:17:19;;;;;;;8.13;1.83;;;4.00;85.80;;;;;;5095963;28;20032;-66
2021/01/30 00:19:45;;;;;;;1.25;1.15;;;4.00;85.90;;;;;;5095126;28;20431;-66
2021/01/30 00:22:14;;;;;;;5.53;1.88;;;4.00;86.00;;;;;;5096301;28;20024;-67
2021/01/30 00:24:44;;;;;;;9.95;2.20;;;4.10;85.90;;;;;;5095950;28;20024;-66
2021/01/30 00:27:13;;;;;;;2.53;1.30;;;4.00;85.70;;;;;;5094974;28;20112;-66
2021/01/30 00:29:39;;;;;;;1.67;1.42;;;4.10;85.50;;;;;;5095878;28;20032;-66
2021/01/30 00:32:06;;;;;;;6.45;1.70;;;4.10;85.60;;;;;;5095580;28;20063;-67
2021/01/30 00:34:34;;;;;;;5.45;2.42;;;4.10;85.60;;;;;;5094781;28;20090;-67
2021/01/30 00:37:16;;;;;;;1.20;1.10;;;4.10;85.10;;;;;;5107962;28;20052;-67
2021/01/30 00:39:42;;;;;;;2.20;1.70;;;4.10;85.50;;;;;;5095615;28;20781;-67
2021/01/30 00:42:11;;;;;;;3.58;1.75;;;4.10;85.40;;;;;;5094952;28;20567;-67
2021/01/30 00:44:37;;;;;;;2.58;1.42;;;4.10;85.60;;;;;;5095414;28;20020;-67
2021/01/30 00:47:03;;;;;;;5.50;2.05;;;4.10;85.60;;;;;;5095453;28;20032;-66
2021/01/30 00:49:29;;;;;;;8.77;2.35;;;4.10;85.50;;;;;;5094600;28;20024;-66
2021/01/30 00:51:56;;;;;;;4.10;2.05;;;4.10;85.40;;;;;;5095513;28;20043;-67
2021/01/30 00:54:22;;;;;;;5.03;2.30;;;4.10;85.50;;;;;;5094388;28;20032;-67
2021/01/30 00:56:53;;;;;;;6.93;2.60;;;4.10;85.30;;;;;;5095423;28;20085;-67
2021/01/30 00:59:21;;;;;;;4.75;2.30;;;4.10;85.30;;;;;;5077038;28;20032;-67
2021/01/30 01:01:50;;;;;;;5.05;3.03;;;4.20;85.40;;;;;;5094424;28;20028;-67
2021/01/30 01:04:21;;;;;;;4.95;2.55;;;4.10;85.00;;;;;;5077117;28;20497;-67
2021/01/30 01:06:48;;;;;;;6.93;3.05;;;4.10;85.10;;;;;;5076880;28;20039;-67
2021/01/30 01:09:14;;;;;;;8.07;2.97;;;4.10;84.80;;;;;;5094302;28;20043;-67
2021/01/30 01:11:41;;;;;;;9.05;2.75;;;4.20;84.90;;;;;;5094751;28;20036;-67
2021/01/30 01:14:07;;;;;;;7.57;3.47;;;4.20;85.00;;;;;;5094925;28;20825;-67
2021/01/30 01:16:34;;;;;;;7.03;2.80;;;4.20;85.00;;;;;;5094243;28;20040;-67
2021/01/30 01:18:59;;;;;;;7.50;2.72;;;4.20;85.00;;;;;;5094891;28;20502;-66
2021/01/30 01:21:25;;;;;;;3.75;1.98;;;4.10;84.50;;;;;;5094698;28;20059;-67
2021/01/30 01:23:51;;;;;;;7.55;2.67;;;4.20;84.60;;;;;;5094096;28;20024;-66
2021/01/30 01:26:18;;;;;;;7.30;2.67;;;4.20;84.60;;;;;;5094850;28;20028;-67
2021/01/30 01:28:45;;;;;;;6.97;2.80;;;4.10;84.50;;;;;;5094505;28;20028;-67
2021/01/30 01:31:12;;;;;;;11.60;2.63;;;4.20;84.50;;;;;;5093993;28;20505;-66
2021/01/30 01:33:39;;;;;;;4.63;2.50;;;4.20;84.30;;;;;;5094611;28;20118;-66
2021/01/30 01:36:05;;;;;;;9.85;3.47;;;4.10;84.20;;;;;;5099343;28;20074;-66
2021/01/30 01:38:32;;;;;;;6.65;2.35;;;4.20;84.10;;;;;;5103041;28;20032;-67
2021/01/30 01:40:59;;;;;;;7.45;2.20;;;4.20;84.20;;;;;;5094314;28;20102;-67
2021/01/30 01:43:26;;;;;;;6.40;3.13;;;4.20;84.20;;;;;;5103983;28;20023;-67
2021/01/30 01:46:19;;;;;;;5.93;2.60;;;4.20;84.30;;;;;;5098105;28;20032;-67
2021/01/30 01:48:55;;;;;;;7.43;2.70;;;4.20;84.20;;;;;;5094407;28;20032;-67
2021/01/30 01:51:26;;;;;;;5.80;2.50;;;4.20;84.20;;;;;;5093409;28;20032;-66
2021/01/30 01:53:53;;;;;;;5.35;2.72;;;4.20;83.90;;;;;;5094486;28;20036;-67
2021/01/30 01:56:25;;;;;;;5.32;2.67;;;4.20;84.00;;;;;;5093945;28;20029;-67
2021/01/30 01:58:56;;;;;;;4.72;2.78;;;4.10;84.00;;;;;;5093886;28;20464;-67
2021/01/30 02:01:22;;;;;;;5.93;2.72;;;4.20;84.10;;;;;;5094060;28;20596;-67
2021/01/30 02:03:54;;;;;;;6.68;2.63;;;4.10;83.90;;;;;;5094077;28;20058;-67
2021/01/30 02:06:20;;;;;;;7.68;2.45;;;4.20;84.20;;;;;;5092481;28;20046;-67
2021/01/30 02:08:47;;;;;;;6.22;2.92;;;4.20;84.20;;;;;;5094103;28;20024;-67
2021/01/30 02:11:13;;;;;;;7.97;2.70;;;4.20;84.10;;;;;;5093813;28;20044;-67
2021/01/30 02:13:47;;;;;;;5.35;2.60;;;4.20;84.20;;;;;;5093150;28;20027;-67
2021/01/30 02:16:23;;;;;;;;;;;4.10;83.90;;;;;;5094208;28;20039;-66
2021/01/30 02:19:23;;;;;;;7.18;2.60;;;4.10;84.20;;;;;;5099663;28;19933;-66
2021/01/30 02:22:07;;;;;;;4.25;2.25;;;4.20;83.90;;;;;;5096273;28;20024;-66
2021/01/30 02:24:57;;;;;;;7.80;2.67;;;4.10;84.20;;;;;;5093658;28;20032;-66
2021/01/30 02:28:07;;;;;;;5.68;2.10;;;4.10;84.40;;;;;;5092932;28;20028;-66
2021/01/30 02:30:54;;;;;;;11.20;2.65;;;4.10;84.70;;;;;;5093476;28;20024;-67
2021/01/30 02:33:57;;;;;;;3.92;1.52;;;4.00;84.60;;;;;;5092951;28;20040;-67
2021/01/30 02:36:49;;;;;;;6.07;2.22;;;4.00;84.90;;;;;;5100590;28;20133;-67
2021/01/30 02:39:21;;;;;;;3.63;1.90;;;4.00;84.80;;;;;;5096252;28;20483;-67
2021/01/30 02:42:01;;;;;;;3.45;1.63;;;4.00;84.80;;;;;;5092683;28;20040;-67
2021/01/30 02:44:31;;;;;;;4.35;1.88;;;4.00;84.80;;;;;;5093266;28;20035;-67
2021/01/30 02:46:57;;;;;;;3.97;2.38;;;3.90;84.90;;;;;;5092707;28;20028;-67
2021/01/30 02:49:32;;;;;;;3.45;2.10;;;4.00;84.90;;;;;;5093168;28;20034;-67
2021/01/30 02:52:06;;;;;;;5.28;2.10;;;3.90;84.80;;;;;;5093165;28;20508;-66
2021/01/30 02:54:34;;;;;;;6.57;2.55;;;4.00;84.60;;;;;;5092120;28;20038;-66
2021/01/30 02:57:00;;;;;;;6.15;2.75;;;4.00;84.40;;;;;;5106777;28;20032;-66
2021/01/30 02:59:29;;;;;;;7.07;2.22;;;4.00;84.10;;;;;;5109546;28;20023;-66
2021/01/30 03:01:55;;;;;;;5.65;2.10;;;4.00;84.00;;;;;;5104496;28;20032;-67
2021/01/30 03:04:24;;;;;;;4.80;3.03;;;4.00;83.80;;;;;;5092846;28;20034;-67
2021/01/30 03:07:17;;;;;;;5.78;2.28;;;4.00;83.70;;;;;;5093013;28;20102;-67
2021/01/30 03:10:08;;;;;;;6.43;2.30;;;4.00;83.70;;;;;;5092453;28;20028;-66
2021/01/30 03:12:46;;;;;;;3.58;2.03;;;4.00;83.80;;;;;;5097046;28;20041;-66
2021/01/30 03:15:18;;;;;;;7.20;1.88;;;4.00;83.70;;;;;;5100408;28;20089;-67
2021/01/30 03:17:47;;;;;;;7.20;1.88;;;4.00;83.80;;;;;;5092887;28;20039;-66
2021/01/30 03:20:13;;;;;;;6.10;2.53;;;4.00;83.70;;;;;;5092941;28;20027;-66
2021/01/30 03:22:41;;;;;;;3.67;2.28;;;3.90;83.60;;;;;;5092007;28;20028;-66
2021/01/30 03:25:08;;;;;;;6.28;2.15;;;3.90;83.40;;;;;;5092695;28;20024;-66
2021/01/30 03:27:35;;;;;;;8.32;1.90;;;3.90;83.30;;;;;;5092894;28;20032;-67
2021/01/30 03:30:09;;;;;;;4.15;1.92;;;4.00;83.10;;;;;;5099717;28;20035;-67
2021/01/30 03:32:35;;;;;;;6.75;1.85;;;4.00;83.00;;;;;;5097928;28;20135;-66
2021/01/30 03:35:01;;;;;;;7.18;2.42;;;3.90;82.90;;;;;;5092575;28;20048;-66
2021/01/30 03:37:27;;;;;;;4.90;2.25;;;4.00;82.90;;;;;;5092034;28;20036;-66
2021/01/30 03:39:52;;;;;;;6.13;2.28;;;3.90;82.80;;;;;;5092473;28;20348;-67
2021/01/30 03:42:18;;;;;;;9.35;2.33;;;4.00;82.70;;;;;;5092545;28;20035;-66
2021/01/30 03:44:44;;;;;;;8.43;2.25;;;4.00;82.60;;;;;;5091889;28;20039;-67
2021/01/30 03:47:10;;;;;;;6.25;2.08;;;3.90;82.50;;;;;;5092708;28;20028;-66
2021/01/30 03:49:36;;;;;;;9.43;2.03;;;4.00;82.70;;;;;;5092499;28;20036;-66
2021/01/30 03:52:02;;;;;;;5.13;2.22;;;3.90;82.80;;;;;;5091867;28;20073;-66
2021/01/30 03:54:27;;;;;;;4.00;2.00;;;3.90;82.90;;;;;;5105358;28;20027;-67
2021/01/30 03:56:53;;;;;;;4.53;2.15;;;3.90;82.80;;;;;;5093783;28;20024;-67
2021/01/30 03:59:20;;;;;;;8.73;2.15;;;3.90;82.90;;;;;;5099237;28;20016;-67
2021/01/30 04:01:47;;;;;;;4.85;2.40;;;3.90;82.90;;;;;;5092340;28;20027;-67
2021/01/30 04:04:12;;;;;;;4.03;2.03;;;3.80;83.00;;;;;;5099772;28;20038;-66
2021/01/30 04:06:38;;;;;;;3.63;1.88;;;3.80;83.10;;;;;;5098499;28;20114;-66
2021/01/30 04:09:06;;;;;;;4.07;2.17;;;3.80;83.10;;;;;;5092277;28;20056;-66
2021/01/30 04:11:33;;;;;;;5.32;2.22;;;3.80;83.00;;;;;;5091683;28;20032;-65
2021/01/30 04:13:59;;;;;;;2.72;1.80;;;3.80;83.00;;;;;;5092358;28;20024;-67
2021/01/30 04:16:25;;;;;;;8.38;2.35;;;3.80;82.90;;;;;;5092303;28;20554;-67
2021/01/30 04:18:51;;;;;;;3.83;2.00;;;3.80;82.60;;;;;;5091452;28;20119;-66
2021/01/30 04:21:17;;;;;;;5.07;2.20;;;3.80;82.60;;;;;;5092314;28;20024;-67
2021/01/30 04:23:44;;;;;;;3.40;1.83;;;3.80;82.50;;;;;;5092016;28;20035;-67
2021/01/30 04:26:10;;;;;;;5.63;2.42;;;3.80;82.40;;;;;;5091752;28;20042;-67
2021/01/30 04:28:36;;;;;;;6.88;2.30;;;3.80;82.30;;;;;;5092311;28;20028;-67
2021/01/30 04:31:02;;;;;;;5.50;2.20;;;3.80;82.20;;;;;;5095750;28;20051;-67
2021/01/30 04:33:27;;;;;;;6.18;2.55;;;3.80;82.10;;;;;;5095040;28;20116;-67
2021/01/30 04:35:53;;;;;;;5.50;2.28;;;3.80;82.00;;;;;;5095447;28;20127;-67
2021/01/30 04:38:19;;;;;;;8.35;2.45;;;3.80;82.00;;;;;;5095607;28;20036;-67
2021/01/30 04:40:46;;;;;;;8.18;2.58;;;3.80;81.90;;;;;;5094930;28;20108;-67
2021/01/30 04:43:21;;;;;;;5.05;2.63;;;3.80;81.70;;;;;;5095838;28;20028;-66
2021/01/30 04:46:10;;;;;;;5.68;2.38;;;3.80;81.60;;;;;;5095329;28;20525;-66
2021/01/30 04:49:05;;;;;;;8.43;2.13;;;3.80;81.60;;;;;;5094832;28;20381;-67
2021/01/30 04:51:31;;;;;;;8.52;2.22;;;3.80;81.40;;;;;;5095452;28;20043;-66
2021/01/30 04:54:13;;;;;;;8.73;2.65;;;3.80;81.30;;;;;;5094918;28;20505;-67
2021/01/30 04:56:50;;;;;;;6.70;2.53;;;3.80;81.20;;;;;;5095339;28;20386;-67
2021/01/30 04:59:58;;;;;;;8.45;2.67;;;3.80;80.90;;;;;;5095695;28;20035;-67
2021/01/30 05:02:42;;;;;;;5.15;2.60;;;3.90;80.80;;;;;;5105956;28;20055;-67
2021/01/30 05:05:12;;;;;;;6.45;2.50;;;3.90;80.50;;;;;;5109633;28;20390;-67
2021/01/30 05:07:47;;;;;;;6.90;2.50;;;3.90;80.20;;;;;;5094734;28;20103;-67
2021/01/30 05:10:27;;;;;;;5.30;3.50;;;3.90;80.10;;;;;;5095134;28;20028;-67
2021/01/30 05:13:01;;;;;;;3.90;2.60;;;3.90;79.90;;;;;;5095080;28;20081;-67
2021/01/30 05:15:29;;;;;;;5.85;2.70;;;3.90;79.70;;;;;;5094147;28;20020;-67
2021/01/30 05:18:14;;;;;;;3.38;2.08;;;3.90;79.70;;;;;;5094984;28;20032;-67
2021/01/30 05:20:47;;;;;;;6.13;2.85;;;3.90;79.80;;;;;;5094793;28;20467;-67
2021/01/30 05:23:14;;;;;;;4.38;2.60;;;3.90;79.90;;;;;;5094381;28;20111;-67
2021/01/30 05:25:40;;;;;;;5.10;2.30;;;3.80;79.80;;;;;;5094734;28;20077;-67
2021/01/30 05:28:39;;;;;;;6.88;2.40;;;3.80;79.90;;;;;;5094749;28;20024;-67
2021/01/30 05:31:33;;;;;;;5.35;2.30;;;3.80;80.00;;;;;;5094706;28;20040;-67
2021/01/30 05:34:09;;;;;;;5.38;2.70;;;3.80;80.00;;;;;;5094687;28;20053;-67
2021/01/30 05:36:56;;;;;;;5.05;2.40;;;3.70;80.00;;;;;;5093656;28;20550;-67
2021/01/30 05:39:38;;;;;;;3.30;2.05;;;3.70;80.00;;;;;;5108849;28;20100;-67
2021/01/30 05:43:01;;;;;;;6.07;2.75;;;3.70;80.10;;;;;;5093535;28;20024;-66
2021/01/30 05:45:44;;;;;;;5.05;2.10;;;3.70;80.30;;;;;;5004167;28;20030;-67
2021/01/30 05:48:31;;;;;;;4.47;2.50;;;3.70;80.10;;;;;;5012381;28;20053;-67
2021/01/30 05:51:13;;;;;;;4.95;2.35;;;3.70;80.20;;;;;;5081510;28;20383;-67
2021/01/30 05:53:39;;;;;;;5.85;2.33;;;3.70;80.20;;;;;;5096133;28;20107;-66
2021/01/30 05:56:05;;;;;;;6.32;2.38;;;3.70;80.20;;;;;;5098919;28;20047;-67
2021/01/30 05:58:38;;;;;;;4.55;2.10;;;3.60;80.20;;;;;;5093439;28;20522;-66
2021/01/30 06:01:16;;;;;;;12.38;2.50;;;3.70;80.20;;;;;;5094144;28;20032;-67
2021/01/30 06:03:58;;;;;;;5.40;2.17;;;3.70;80.00;;;;;;5097687;28;20038;-67
2021/01/30 06:06:32;;;;;;;11.27;2.50;;;3.70;80.50;;;;;;5084034;28;20043;-67
2021/01/30 06:09:05;;;;;;;4.55;2.17;;;3.60;80.00;;;;;;5093912;28;20028;-66
2021/01/30 06:11:49;;;;;;;5.20;2.28;;;3.70;79.70;;;;;;5093202;28;20043;-66
2021/01/30 06:14:35;;;;;;;5.32;1.92;;;3.70;79.60;;;;;;5093736;28;20467;-66
2021/01/30 06:17:01;;;;;;;6.70;2.25;;;3.70;79.50;;;;;;5093842;28;20063;-66
2021/01/30 06:19:32;;;;;;;4.65;2.20;;;3.60;79.20;;;;;;5093189;28;20035;-66
2021/01/30 06:22:07;;;;;;;3.63;2.10;;;3.60;78.90;;;;;;5093616;28;20032;-66
2021/01/30 06:24:33;;;;;;;8.43;2.30;;;3.60;78.80;;;;;;5093524;28;20027;-65
2021/01/30 06:27:10;;;;;;;3.53;1.92;;;3.60;78.70;;;;;;5093039;28;20024;-66
2021/01/30 06:29:42;;;;;;;9.50;1.95;;;3.70;78.80;;;;;;5093476;28;20032;-66
2021/01/30 06:32:21;;;;;;;3.40;1.88;;;3.70;78.80;;;;;;5106932;28;20054;-65
2021/01/30 06:34:49;;;;;;;5.43;2.35;;;3.70;78.80;;;;;;5093466;28;20085;-66
2021/01/30 06:37:35;;;;;;;4.43;1.70;;;3.70;78.60;;;;;;5093093;28;20052;-66
2021/01/30 06:40:24;;;;;;;2.45;1.80;;;3.80;78.60;;;;;;5092921;28;20085;-65
2021/01/30 06:43:12;;;;;;;8.43;2.40;;;3.80;78.60;;;;;;5093292;28;20031;-66
2021/01/30 06:45:40;;;;;;;5.05;2.20;;;3.70;78.40;;;;;;5092906;28;20040;-66
2021/01/30 06:48:21;;;;;;;3.15;1.92;;;3.80;78.30;;;;;;5092584;28;20024;-66
2021/01/30 06:50:47;;;;;;;5.13;1.80;;;3.80;78.30;;;;;;5093486;28;20055;-66
2021/01/30 06:53:22;;;;;;;8.02;2.30;;;3.80;78.30;;;;;;5092016;28;20090;-66
2021/01/30 06:55:48;;;;;;;4.55;2.25;;;3.80;78.20;;;;;;5093228;28;20516;-66
2021/01/30 06:58:23;;;;;;;3.70;1.98;;;3.80;78.20;;;;;;5093206;28;20492;-65
2021/01/30 07:00:51;;;;;;;4.32;2.05;;;3.90;78.20;;;;;;5092567;28;20024;-65
2021/01/30 07:03:31;;;;;;;4.60;2.13;;;3.80;78.00;;;;;;5093113;28;20486;-66
2021/01/30 07:06:44;;;;;;;2.95;1.98;;;3.80;78.00;;;;;;5104914;28;20038;-66
2021/01/30 07:09:28;;;;;;;6.60;2.03;;;3.80;78.00;;;;;;5064520;28;20127;-65
2021/01/30 07:12:19;;;;;;;3.08;1.90;;;3.80;77.80;;;;;;5092797;28;20040;-65
2021/01/30 07:15:05;;;;;;;3.78;2.20;;;3.80;77.90;;;;;;5092408;28;20081;-66
2021/01/30 07:17:45;;;;;;;5.78;2.13;;;3.80;77.90;;;;;;5106375;28;20552;-66
2021/01/30 07:20:38;;;;;;;2.97;1.92;;;3.80;77.90;;;;;;5092921;28;20063;-66
2021/01/30 07:23:10;;;;;;;4.28;1.90;;;3.80;77.90;;;;;;5056374;28;20039;-66
2021/01/30 07:25:57;;;;;;;4.97;2.10;;;3.80;77.80;;;;;;5092716;28;20086;-65
2021/01/30 07:28:32;;;;;;;5.72;2.33;;;3.80;77.80;;;;;;5092006;28;20174;-66
2021/01/30 07:31:29;;;;;;;4.63;2.00;;;3.80;77.70;;;;;;5092417;28;20036;-66
2021/01/30 07:34:38;;;;;;;4.72;2.10;;;3.80;77.60;;;;;;5103600;28;20054;-67
2021/01/30 07:37:15;;;;;;;9.25;2.25;;;3.80;77.50;;;;;;5095722;28;20127;-66
2021/01/30 07:39:54;;;;;;;5.18;2.35;;;3.80;77.30;;;;;;5095456;28;20024;-67
2021/01/30 07:42:31;;;;;;;5.10;3.03;;;3.70;77.20;;;;;;5091701;28;20380;-68
2021/01/30 07:45:24;;;;;;;4.45;2.50;;;3.80;77.20;;;;;;5092559;28;20028;-67
2021/01/30 07:48:18;;;;;;;7.07;2.85;;;3.70;77.10;;;;;;5092363;28;20066;-66
2021/01/30 07:50:50;;;;;;;5.25;2.50;;;3.70;77.00;;;;;;5091744;28;20107;-67
2021/01/30 07:53:24;;;;;;;4.07;2.05;;;3.70;76.90;;;;;;5092378;28;20036;-67
2021/01/30 07:56:05;;;;;;;5.32;1.90;;;3.70;76.80;;;;;;5092570;28;20031;-68
2021/01/30 07:58:39;;;;;;;4.40;2.20;;;3.70;77.00;;;;;;5098390;28;20023;-66
2021/01/30 08:01:14;;;;;;;3.65;2.03;;;3.70;77.10;;;;;;5092490;28;20113;-66
2021/01/30 08:03:59;;;;;;;4.90;2.47;;;3.70;77.10;;;;;;5096666;28;20090;-66
2021/01/30 08:06:55;;;;;;;8.50;2.70;;;3.70;77.30;;;;;;5114888;28;20032;-66
2021/01/30 08:09:54;;;;;;;5.13;2.55;;;3.70;77.30;;;;;;5114179;28;20047;-66
2021/01/30 08:12:55;;;;;;;12.63;2.95;;;3.70;77.30;;;;;;5113809;27;20074;-66
2021/01/30 08:15:30;;;;;;;7.32;2.88;;;3.70;77.30;;;;;;5113159;28;20081;-66
2021/01/30 08:18:27;;;;;;;7.05;2.95;;;3.80;77.20;;;;;;5113313;28;20032;-66
2021/01/30 08:21:20;;;;;;;8.77;3.15;;;3.70;77.20;;;;;;5113213;28;20485;-65
2021/01/30 08:24:34;;;;;;;5.45;2.75;;;3.80;77.30;;;;;;5111279;28;20022;-66
2021/01/30 08:27:05;;;;;;;11.20;6.07;;;3.80;77.20;;;;;;5089727;28;20096;-67
2021/01/30 08:29:49;;;;;;;12.00;4.57;;;3.80;77.00;;;;;;5096504;28;20024;-66
2021/01/30 08:32:24;;;;;;;;;;;3.80;77.00;;;;;;5093300;28;20044;-67
2021/01/30 08:35:17;;;;;;;7.60;2.45;;;3.80;77.00;;;;;;5093688;28;19911;-67
2021/01/30 08:37:43;;;;;;;5.18;3.10;;;3.80;76.90;;;;;;5093470;28;20051;-67
2021/01/30 08:40:15;;;;;;;6.55;3.22;;;3.80;77.00;;;;;;5110092;28;20040;-68
2021/01/30 08:42:53;;;;;;;5.88;2.60;;;3.80;77.10;;;;;;5113758;28;20016;-67
2021/01/30 08:45:26;;;;;;;8.75;3.20;;;3.80;77.10;;;;;;5108128;28;20103;-68
2021/01/30 08:47:54;;;;;;;8.80;4.40;;;3.80;77.00;;;;;;5093821;28;20027;-68
2021/01/30 08:50:26;;;;;;;9.35;3.00;;;3.80;77.00;;;;;;5096780;28;20093;-68
2021/01/30 08:53:15;;;;;;;17.77;3.53;;;3.90;76.90;;;;;;5104682;28;20892;-68
2021/01/30 08:55:44;;;;;;;8.40;3.60;;;3.80;76.80;;;;;;5097206;28;20032;-68
2021/01/30 08:58:37;;;;;;;7.28;3.05;;;3.90;76.80;;;;;;5093930;28;21426;-67
2021/01/30 09:01:10;;;;;;;7.73;3.40;;;3.80;76.90;;;;;;5111819;28;20027;-67
2021/01/30 09:03:48;;;;;;;8.00;3.50;;;3.90;76.80;;;;;;5111685;28;20027;-67
2021/01/30 09:06:38;;;;;;;6.20;3.00;;;3.90;76.80;;;;;;5112512;28;20391;-67
2021/01/30 09:09:25;;;;;;;7.68;2.70;;;3.90;76.80;;;;;;5109560;28;20030;-67
2021/01/30 09:11:53;;;;;;;8.00;2.50;;;3.90;76.90;;;;;;5110235;28;20089;-68
2021/01/30 09:14:19;;;;;;;4.80;2.72;;;3.90;76.90;;;;;;5107167;28;20020;-67
2021/01/30 09:16:56;;;;;;;5.32;2.83;;;3.90;77.00;;;;;;5099098;28;20510;-69
2021/01/30 09:19:58;;;;;;;7.22;2.90;;;3.90;77.10;;;;;;5089627;28;20028;-72
2021/01/30 09:22:39;;;;;;;7.95;4.07;;;3.90;77.10;;;;;;5095795;28;20485;-69
2021/01/30 09:25:23;;;;;;;6.35;3.00;;;3.90;77.00;;;;;;5093644;28;20483;-69
2021/01/30 09:27:56;;;;;;;;;;;3.90;77.10;;;;;;5094125;28;20026;-69
2021/01/30 09:30:37;;;;;;;6.85;3.60;;;3.90;77.20;;;;;;5094136;28;19908;-72
2021/01/30 09:33:20;;;;;;;7.43;3.50;;;3.90;77.00;;;;;;5092476;28;20089;-68
2021/01/30 09:35:46;;;;;;;6.88;2.95;;;3.90;77.20;;;;;;5106227;28;20112;-69
2021/01/30 09:38:18;;;;;;;4.90;2.25;;;3.90;77.30;;;;;;5098642;28;20655;-79
2021/01/30 09:40:44;;;;;;;7.25;2.85;;;3.90;77.30;;;;;;5091703;28;20505;-77
2021/01/30 09:43:09;;;;;;;5.85;2.97;;;3.90;77.20;;;;;;5092148;28;20028;-69
2021/01/30 09:45:37;;;;;;;13.27;3.92;;;4.00;77.30;;;;;;5093551;28;20035;-67
2021/01/30 09:48:11;;;;;;;6.13;2.83;;;4.00;77.40;;;;;;5099620;28;20030;-68
2021/01/30 09:50:38;;;;;;;;;;;4.00;77.30;;;;;;5101103;28;20024;-68
2021/01/30 09:53:12;;;;;;;5.57;2.17;;;4.00;77.40;;;;;;5092799;28;19943;-66
2021/01/30 09:55:39;;;;;;;19.92;3.28;;;4.00;77.30;;;;;;5093549;28;20047;-70
2021/01/30 09:58:11;;;;;;;8.10;3.53;;;4.00;77.30;;;;;;5092185;28;20045;-70
2021/01/30 10:00:39;;;;;;;5.68;2.85;;;3.90;77.30;;;;;;5092690;28;20035;-66
2021/01/30 10:03:19;;;;;;;6.15;2.53;;;4.00;77.50;;;;;;5094430;28;20863;-67
2021/01/30 10:05:46;;;;;;;2.53;1.55;;;4.00;77.50;;;;;;5092608;28;20506;-67
2021/01/30 10:08:13;;;;;;;2.17;1.60;;;4.00;77.60;;;;;;5095477;28;20028;-68
2021/01/30 10:10:39;;;;;;;6.80;2.28;;;4.00;77.50;;;;;;5093434;28;20032;-67
2021/01/30 10:13:13;;;;;;;6.93;3.30;;;4.00;77.50;;;;;;5095080;28;20048;-74
2021/01/30 10:15:42;;;;;;;9.90;3.80;;;4.00;77.20;;;;;;5097315;28;20081;-68
2021/01/30 10:18:14;;;;;;;8.18;3.58;;;4.10;77.10;;;;;;5099093;28;20153;-66
2021/01/30 10:20:56;;;;;;;3.60;2.22;;;4.00;76.70;;;;;;5106776;28;20027;-65
2021/01/30 10:23:35;;;;;;;2.72;1.92;;;4.10;77.00;;;;;;5111870;28;20077;-66
2021/01/30 10:26:06;;;;;;;5.85;3.22;;;4.10;77.20;;;;;;5104820;28;20043;-68
2021/01/30 10:28:58;;;;;;;3.30;2.10;;;4.10;77.20;;;;;;5102495;28;20061;-68
2021/01/30 10:31:30;;;;;;;7.75;2.60;;;4.10;77.30;;;;;;5094247;28;20509;-68
2021/01/30 10:34:03;;;;;;;6.10;3.28;;;4.10;77.40;;;;;;5094475;28;20036;-68
2021/01/30 10:36:32;;;;;;;4.95;2.33;;;4.20;77.50;;;;;;5100116;28;20096;-67
2021/01/30 10:38:59;;;;;;;3.47;1.98;;;4.20;77.20;;;;;;5088578;28;20506;-67
2021/01/30 10:41:28;;;;;;;5.50;3.22;;;4.10;77.40;;;;;;5097569;28;20487;-68
2021/01/30 10:44:01;;;;;;;2.80;1.67;;;4.20;77.30;;;;;;5090221;28;20043;-68
2021/01/30 10:46:41;;;;;;;6.13;2.90;;;4.20;77.40;;;;;;5096226;28;20032;-68
2021/01/30 10:49:31;;;;;;;5.70;2.88;;;4.20;78.00;;;;;;5095397;28;20089;-68
2021/01/30 10:52:23;;;;;;;7.30;3.10;;;4.20;77.40;;;;;;5094762;28;20093;-68
2021/01/30 10:54:49;;;;;;;3.13;2.17;;;4.30;77.00;;;;;;5103268;28;20031;-67
2021/01/30 10:57:17;;;;;;;3.63;2.28;;;4.20;77.00;;;;;;5096955;28;20032;-69
2021/01/30 10:59:54;;;;;;;4.07;2.00;;;4.20;77.20;;;;;;5092453;28;20016;-72
2021/01/30 11:02:23;;;;;;;2.85;1.65;;;4.30;77.50;;;;;;5093080;28;20043;-70
2021/01/30 11:05:00;;;;;;;4.25;3.17;;;4.30;77.50;;;;;;5105687;28;20066;-67
2021/01/30 11:07:37;;;;;;;8.60;2.25;;;4.30;77.50;;;;;;5103339;28;20036;-68
2021/01/30 11:10:03;;;;;;;5.63;3.15;;;4.30;77.50;;;;;;5092964;28;20544;-67
2021/01/30 11:12:29;;;;;;;5.15;3.10;;;4.30;77.50;;;;;;5099706;28;20043;-67
2021/01/30 11:14:55;;;;;;;1.40;0.93;;;4.30;77.50;;;;;;5092303;28;20032;-68
2021/01/30 11:17:32;;;;;;;6.70;3.88;;;4.40;77.60;;;;;;5092763;28;20499;-67
2021/01/30 11:19:58;;;;;;;6.13;3.28;;;4.40;77.30;;;;;;5092834;28;20025;-67
2021/01/30 11:22:28;;;;;;;2.35;1.42;;;4.40;77.00;;;;;;5091693;28;20032;-69
2021/01/30 11:25:10;;;;;;;9.05;3.75;;;4.50;76.80;;;;;;5092866;28;20089;-68
2021/01/30 11:27:45;;;;;;;6.90;3.22;;;4.50;76.40;;;;;;5091842;28;20783;-66
2021/01/30 11:30:13;;;;;;;4.72;2.10;;;4.50;75.90;;;;;;5092306;28;20041;-66
2021/01/30 11:32:40;;;;;;;6.35;3.22;;;4.50;75.40;;;;;;5092170;28;20067;-68
2021/01/30 11:35:06;;;;;;;9.68;3.97;;;4.50;76.10;;;;;;5100621;28;20374;-67
2021/01/30 11:37:32;;;;;;;5.38;2.13;;;4.50;75.20;;;;;;5105198;28;20364;-68
2021/01/30 11:40:07;;;;;;;4.75;2.58;;;4.50;75.40;;;;;;5108109;28;20035;-68
2021/01/30 11:42:33;;;;;;;12.60;3.72;;;4.40;76.10;;;;;;5112643;28;20070;-67
2021/01/30 11:44:58;;;;;;;4.22;2.15;;;4.50;75.60;;;;;;5096719;28;20056;-69
2021/01/30 11:47:24;;;;;;;6.60;3.88;;;4.50;75.60;;;;;;5096368;28;20028;-68
2021/01/30 11:49:50;;;;;;;3.70;2.17;;;4.40;75.60;;;;;;5104772;28;20027;-72
2021/01/30 11:52:17;;;;;;;6.28;2.90;;;4.50;75.50;;;;;;5106921;28;20039;-68
2021/01/30 11:54:44;;;;;;;4.03;2.25;;;4.50;75.10;;;;;;5107719;28;20057;-67
2021/01/30 11:57:10;;;;;;;5.60;3.17;;;4.40;75.30;;;;;;5095295;28;20069;-71
2021/01/30 11:59:35;;;;;;;10.13;3.65;;;4.40;74.90;;;;;;5097714;28;20032;-69
2021/01/30 12:02:01;;;;;;;3.08;2.05;;;4.40;74.60;;;;;;5094750;28;20032;-69
2021/01/30 12:04:26;;;;;;;4.35;2.65;;;4.50;75.70;;;;;;5094893;28;20045;-71
2021/01/30 12:06:52;;;;;;;5.03;2.95;;;4.50;75.60;;;;;;5097003;28;20036;-72
2021/01/30 12:09:18;;;;;;;5.15;2.50;;;4.50;75.50;;;;;;5105469;28;20035;-72
2021/01/30 12:11:43;;;;;;;3.63;2.10;;;4.60;76.10;;;;;;5093162;28;20036;-71
2021/01/30 12:14:09;;;;;;;0.90;0.75;;;4.50;76.40;;;;;;5095397;28;20032;-72
2021/01/30 12:16:35;;;;;;;3.90;1.80;;;4.60;76.70;;;;;;5095183;28;20032;-72
2021/01/30 12:19:00;;;;;;;4.75;2.90;;;4.60;76.60;;;;;;5095953;28;20020;-74
2021/01/30 12:21:27;;;;;;;5.05;2.78;;;4.70;76.70;;;;;;5103040;28;20463;-70
2021/01/30 12:23:53;;;;;;;5.32;3.53;;;4.60;76.40;;;;;;5093880;28;20020;-70
2021/01/30 12:26:22;;;;;;;7.97;4.72;;;4.70;77.00;;;;;;5092086;28;20097;-68
2021/01/30 12:28:49;;;;;;;2.85;2.30;;;4.70;76.40;;;;;;5097916;28;20024;-69
2021/01/30 12:31:15;;;;;;;1.88;1.25;;;4.70;76.80;;;;;;5095251;28;20030;-68
2021/01/30 12:33:40;;;;;;;3.30;2.03;;;4.70;77.30;;;;;;5096817;28;20453;-69
2021/01/30 12:36:08;;;;;;;3.90;2.55;;;4.80;77.30;;;;;;5096711;28;20044;-70
2021/01/30 12:38:34;;;;;;;2.13;1.83;;;4.80;76.70;;;;;;5105073;28;20397;-71
2021/01/30 12:41:00;;;;;;;0.85;0.75;;;4.80;77.00;;;;;;5109157;28;20020;-69
2021/01/30 12:43:27;;;;;;;2.10;1.48;;;4.80;77.40;;;;;;5106293;28;20024;-73
2021/01/30 12:45:52;;;;;;;7.57;3.45;;;4.80;77.10;;;;;;5106833;28;20068;-71
2021/01/30 12:48:18;;;;;;;5.93;3.22;;;4.90;76.60;;;;;;5112356;28;20514;-70
2021/01/30 12:50:45;;;;;;;7.03;3.55;;;4.90;76.20;;;;;;5109273;28;20109;-71
2021/01/30 12:53:11;;;;;;;1.08;0.98;;;4.90;75.90;;;;;;5098055;28;20042;-71
2021/01/30 12:55:39;;;;;;;5.15;2.78;;;4.90;76.60;;;;;;5109264;28;20037;-71
2021/01/30 12:58:23;;;;;;;5.18;2.40;;;4.90;76.60;;;;;;5102438;28;20039;-71
2021/01/30 13:00:49;;;;;;;5.03;2.45;;;4.90;77.10;;;;;;5099008;28;20020;-71
2021/01/30 13:03:15;;;;;;;3.55;1.77;;;5.00;77.10;;;;;;5105122;28;21084;-71
2021/01/30 13:05:42;;;;;;;5.35;2.65;;;5.00;77.40;;;;;;5097881;28;20036;-70
2021/01/30 13:08:08;;;;;;;6.90;3.55;;;5.00;77.00;;;;;;5103837;28;20024;-70
2021/01/30 13:10:34;;;;;;;8.98;3.33;;;5.00;76.20;;;;;;5094316;28;20090;-70
2021/01/30 13:13:00;;;;;;;6.35;3.53;;;5.10;76.30;;;;;;5103740;28;20071;-71
2021/01/30 13:15:25;;;;;;;4.32;3.08;;;5.00;75.30;;;;;;5105808;28;20121;-70
2021/01/30 13:17:52;;;;;;;7.20;3.47;;;5.00;74.70;;;;;;5104693;28;20042;-70
2021/01/30 13:20:18;;;;;;;6.28;3.50;;;5.00;74.80;;;;;;5097435;28;20429;-70
2021/01/30 13:22:44;;;;;;;6.10;2.92;;;5.00;74.80;;;;;;5097481;28;20053;-70
2021/01/30 13:25:12;;;;;;;1.45;1.13;;;5.00;75.50;;;;;;5098251;28;20032;-70
2021/01/30 13:27:38;;;;;;;2.97;1.80;;;5.00;75.90;;;;;;5091911;28;20110;-70
2021/01/30 13:30:10;;;;;;;10.10;4.55;;;5.00;76.30;;;;;;5105119;28;20161;-70